sensor_id;sensor_type;location;lat;lon;timestamp;P1;P2;P0
48893;PMS5003;34710;35.798;139.446;2022-10-23T00:01:51;18;18;
48893;PMS5003;34710;35.798;139.446;2022-10-23T00:04:21;16;16;
48893;PMS5003;34710;35.798;139.446;2022-10-23T00:06:51;20;18;
48893;PMS5003;34710;35.798;139.446;2022-10-23T00:09:22;22;19;
48893;PMS5003;34710;35.798;139.446;2022-10-23T00:11:51;19;16;
48893;PMS5003;34710;35.798;139.446;2022-10-23T00:14:21;20;17;
48893;PMS5003;34710;35.798;139.446;2022-10-23T00:16:51;23;20;
48893;PMS5003;34710;35.798;139.446;2022-10-23T00:19:20;19;16;
48893;PMS5003;34710;35.798;139.446;2022-10-23T00:21:49;17;17;
48893;PMS5003;34710;35.798;139.446;2022-10-23T00:24:19;25;21;
48893;PMS5003;34710;35.798;139.446;2022-10-23T00:26:48;20;20;
48893;PMS5003;34710;35.798;139.446;2022-10-23T00:29:17;20;20;
48893;PMS5003;34710;35.798;139.446;2022-10-23T00:31:47;21;21;
48893;PMS5003;34710;35.798;139.446;2022-10-23T00:34:15;24;19;
48893;PMS5003;34710;35.798;139.446;2022-10-23T00:36:45;33;22;
48893;PMS5003;34710;35.798;139.446;2022-10-23T00:39:14;19;18;
48893;PMS5003;34710;35.798;139.446;2022-10-23T00:41:43;21;20;
48893;PMS5003;34710;35.798;139.446;2022-10-23T00:45:07;23;17;
48893;PMS5003;34710;35.798;139.446;2022-10-23T00:47:39;24;20;
48893;PMS5003;34710;35.798;139.446;2022-10-23T00:50:08;18;16;
48893;PMS5003;34710;35.798;139.446;2022-10-23T00:52:40;19;17;
48893;PMS5003;34710;35.798;139.446;2022-10-23T00:55:14;27;16;
48893;PMS5003;34710;35.798;139.446;2022-10-23T00:57:45;18;17;
48893;PMS5003;34710;35.798;139.446;2022-10-23T01:00:19;16;16;
48893;PMS5003;34710;35.798;139.446;2022-10-23T01:02:51;19;18;
48893;PMS5003;34710;35.798;139.446;2022-10-23T01:05:24;20;20;
48893;PMS5003;34710;35.798;139.446;2022-10-23T01:07:57;19;18;
48893;PMS5003;34710;35.798;139.446;2022-10-23T01:10:31;18;17;
48893;PMS5003;34710;35.798;139.446;2022-10-23T01:13:04;14;14;
48893;PMS5003;34710;35.798;139.446;2022-10-23T01:15:40;18;17;
48893;PMS5003;34710;35.798;139.446;2022-10-23T01:18:15;22;18;
48893;PMS5003;34710;35.798;139.446;2022-10-23T01:20:49;18;16;
48893;PMS5003;34710;35.798;139.446;2022-10-23T01:24:16;17;16;
48893;PMS5003;34710;35.798;139.446;2022-10-23T01:26:56;17;17;
48893;PMS5003;34710;35.798;139.446;2022-10-23T01:29:40;16;16;
48893;PMS5003;34710;35.798;139.446;2022-10-23T01:32:11;18;17;
48893;PMS5003;34710;35.798;139.446;2022-10-23T01:34:46;21;19;
48893;PMS5003;34710;35.798;139.446;2022-10-23T01:37:20;18;18;
48893;PMS5003;34710;35.798;139.446;2022-10-23T01:39:55;17;16;
48893;PMS5003;34710;35.798;139.446;2022-10-23T01:42:33;17;16;
48893;PMS5003;34710;35.798;139.446;2022-10-23T01:45:07;19;19;
48893;PMS5003;34710;35.798;139.446;2022-10-23T01:47:40;18;18;
48893;PMS5003;34710;35.798;139.446;2022-10-23T01:50:11;19;17;
48893;PMS5003;34710;35.798;139.446;2022-10-23T01:52:43;21;17;
48893;PMS5003;34710;35.798;139.446;2022-10-23T01:55:13;19;18;
48893;PMS5003;34710;35.798;139.446;2022-10-23T01:57:43;68;40;
48893;PMS5003;34710;35.798;139.446;2022-10-23T02:00:16;36;21;
48893;PMS5003;34710;35.798;139.446;2022-10-23T02:02:47;15;14;
48893;PMS5003;34710;35.798;139.446;2022-10-23T02:05:20;15;13;
48893;PMS5003;34710;35.798;139.446;2022-10-23T02:07:52;14;14;
48893;PMS5003;34710;35.798;139.446;2022-10-23T02:10:23;15;15;
48893;PMS5003;34710;35.798;139.446;2022-10-23T02:13:00;15;12;
48893;PMS5003;34710;35.798;139.446;2022-10-23T02:15:36;13;13;
48893;PMS5003;34710;35.798;139.446;2022-10-23T02:18:12;12;12;
48893;PMS5003;34710;35.798;139.446;2022-10-23T02:20:54;17;15;
48893;PMS5003;34710;35.798;139.446;2022-10-23T02:23:28;17;15;
48893;PMS5003;34710;35.798;139.446;2022-10-23T02:26:02;16;14;
48893;PMS5003;34710;35.798;139.446;2022-10-23T02:28:37;15;15;
48893;PMS5003;34710;35.798;139.446;2022-10-23T02:31:11;16;14;
48893;PMS5003;34710;35.798;139.446;2022-10-23T02:33:43;14;13;
48893;PMS5003;34710;35.798;139.446;2022-10-23T02:36:14;15;15;
48893;PMS5003;34710;35.798;139.446;2022-10-23T02:38:44;17;16;
48893;PMS5003;34710;35.798;139.446;2022-10-23T02:41:21;15;12;
48893;PMS5003;34710;35.798;139.446;2022-10-23T02:44:01;14;14;
48893;PMS5003;34710;35.798;139.446;2022-10-23T02:46:40;14;10;
48893;PMS5003;34710;35.798;139.446;2022-10-23T02:49:17;12;12;
48893;PMS5003;34710;35.798;139.446;2022-10-23T02:51:54;13;13;
48893;PMS5003;34710;35.798;139.446;2022-10-23T02:54:35;13;11;
48893;PMS5003;34710;35.798;139.446;2022-10-23T02:57:20;15;13;
48893;PMS5003;34710;35.798;139.446;2022-10-23T02:59:56;12;12;
48893;PMS5003;34710;35.798;139.446;2022-10-23T03:02:31;15;12;
48893;PMS5003;34710;35.798;139.446;2022-10-23T03:05:06;14;12;
48893;PMS5003;34710;35.798;139.446;2022-10-23T03:07:39;16;14;
48893;PMS5003;34710;35.798;139.446;2022-10-23T03:10:09;13;12;
48893;PMS5003;34710;35.798;139.446;2022-10-23T03:12:38;14;12;
48893;PMS5003;34710;35.798;139.446;2022-10-23T03:15:09;19;16;
48893;PMS5003;34710;35.798;139.446;2022-10-23T03:17:39;13;11;
48893;PMS5003;34710;35.798;139.446;2022-10-23T03:20:09;16;14;
48893;PMS5003;34710;35.798;139.446;2022-10-23T03:22:39;13;12;
48893;PMS5003;34710;35.798;139.446;2022-10-23T03:25:08;13;12;
48893;PMS5003;34710;35.798;139.446;2022-10-23T03:27:37;12;12;
48893;PMS5003;34710;35.798;139.446;2022-10-23T03:30:07;19;9;
48893;PMS5003;34710;35.798;139.446;2022-10-23T03:32:37;13;13;
48893;PMS5003;34710;35.798;139.446;2022-10-23T03:35:07;12;12;
48893;PMS5003;34710;35.798;139.446;2022-10-23T03:37:36;16;12;
48893;PMS5003;34710;35.798;139.446;2022-10-23T03:40:05;29;17;
48893;PMS5003;34710;35.798;139.446;2022-10-23T03:42:36;14;11;
48893;PMS5003;34710;35.798;139.446;2022-10-23T03:45:05;12;9;
48893;PMS5003;34710;35.798;139.446;2022-10-23T03:47:35;12;10;
48893;PMS5003;34710;35.798;139.446;2022-10-23T03:50:04;10;10;
48893;PMS5003;34710;35.798;139.446;2022-10-23T03:52:34;13;11;
48893;PMS5003;34710;35.798;139.446;2022-10-23T03:55:04;11;9;
48893;PMS5003;34710;35.798;139.446;2022-10-23T03:57:34;8;8;
48893;PMS5003;34710;35.798;139.446;2022-10-23T04:00:04;9;9;
48893;PMS5003;34710;35.798;139.446;2022-10-23T04:02:35;8;8;
48893;PMS5003;34710;35.798;139.446;2022-10-23T04:05:05;10;8;
48893;PMS5003;34710;35.798;139.446;2022-10-23T04:07:34;9;9;
48893;PMS5003;34710;35.798;139.446;2022-10-23T04:10:05;7;7;
48893;PMS5003;34710;35.798;139.446;2022-10-23T04:12:34;8;8;
48893;PMS5003;34710;35.798;139.446;2022-10-23T04:15:04;10;10;
48893;PMS5003;34710;35.798;139.446;2022-10-23T04:17:34;11;10;
48893;PMS5003;34710;35.798;139.446;2022-10-23T04:20:04;11;9;
48893;PMS5003;34710;35.798;139.446;2022-10-23T04:22:34;12;12;
48893;PMS5003;34710;35.798;139.446;2022-10-23T04:25:04;8;8;
48893;PMS5003;34710;35.798;139.446;2022-10-23T04:27:33;12;12;
48893;PMS5003;34710;35.798;139.446;2022-10-23T04:30:03;10;9;
48893;PMS5003;34710;35.798;139.446;2022-10-23T04:32:33;10;10;
48893;PMS5003;34710;35.798;139.446;2022-10-23T04:35:02;12;12;
48893;PMS5003;34710;35.798;139.446;2022-10-23T04:37:32;12;10;
48893;PMS5003;34710;35.798;139.446;2022-10-23T04:40:01;13;13;
48893;PMS5003;34710;35.798;139.446;2022-10-23T04:42:30;11;11;
48893;PMS5003;34710;35.798;139.446;2022-10-23T04:45:00;15;14;
48893;PMS5003;34710;35.798;139.446;2022-10-23T04:47:29;22;10;
48893;PMS5003;34710;35.798;139.446;2022-10-23T04:49:59;12;11;
48893;PMS5003;34710;35.798;139.446;2022-10-23T04:52:28;15;14;
48893;PMS5003;34710;35.798;139.446;2022-10-23T04:54:58;14;13;
48893;PMS5003;34710;35.798;139.446;2022-10-23T04:57:27;13;13;
48893;PMS5003;34710;35.798;139.446;2022-10-23T04:59:56;19;13;
48893;PMS5003;34710;35.798;139.446;2022-10-23T05:02:25;15;15;
48893;PMS5003;34710;35.798;139.446;2022-10-23T05:04:55;14;13;
48893;PMS5003;34710;35.798;139.446;2022-10-23T05:07:24;12;12;
48893;PMS5003;34710;35.798;139.446;2022-10-23T05:09:53;12;12;
48893;PMS5003;34710;35.798;139.446;2022-10-23T05:12:23;15;14;
48893;PMS5003;34710;35.798;139.446;2022-10-23T05:14:52;15;14;
48893;PMS5003;34710;35.798;139.446;2022-10-23T05:17:22;14;14;
48893;PMS5003;34710;35.798;139.446;2022-10-23T05:19:56;13;13;
48893;PMS5003;34710;35.798;139.446;2022-10-23T05:22:29;13;12;
48893;PMS5003;34710;35.798;139.446;2022-10-23T05:25:02;16;15;
48893;PMS5003;34710;35.798;139.446;2022-10-23T05:27:32;14;14;
48893;PMS5003;34710;35.798;139.446;2022-10-23T05:30:01;14;14;
48893;PMS5003;34710;35.798;139.446;2022-10-23T05:32:31;14;14;
48893;PMS5003;34710;35.798;139.446;2022-10-23T05:35:04;19;18;
48893;PMS5003;34710;35.798;139.446;2022-10-23T05:37:36;16;14;
48893;PMS5003;34710;35.798;139.446;2022-10-23T05:40:08;16;14;
48893;PMS5003;34710;35.798;139.446;2022-10-23T05:42:37;21;14;
48893;PMS5003;34710;35.798;139.446;2022-10-23T05:45:07;13;13;
48893;PMS5003;34710;35.798;139.446;2022-10-23T05:47:36;18;16;
48893;PMS5003;34710;35.798;139.446;2022-10-23T05:50:06;13;13;
48893;PMS5003;34710;35.798;139.446;2022-10-23T05:52:36;14;14;
48893;PMS5003;34710;35.798;139.446;2022-10-23T05:55:05;14;12;
48893;PMS5003;34710;35.798;139.446;2022-10-23T05:57:34;24;15;
48893;PMS5003;34710;35.798;139.446;2022-10-23T06:00:05;15;14;
48893;PMS5003;34710;35.798;139.446;2022-10-23T06:02:35;15;15;
48893;PMS5003;34710;35.798;139.446;2022-10-23T06:05:04;15;15;
48893;PMS5003;34710;35.798;139.446;2022-10-23T06:07:34;20;16;
48893;PMS5003;34710;35.798;139.446;2022-10-23T06:10:04;31;16;
48893;PMS5003;34710;35.798;139.446;2022-10-23T06:12:33;17;17;
48893;PMS5003;34710;35.798;139.446;2022-10-23T06:15:04;16;15;
48893;PMS5003;34710;35.798;139.446;2022-10-23T06:17:34;17;17;
48893;PMS5003;34710;35.798;139.446;2022-10-23T06:20:03;16;15;
48893;PMS5003;34710;35.798;139.446;2022-10-23T06:22:33;16;16;
48893;PMS5003;34710;35.798;139.446;2022-10-23T06:25:03;19;17;
48893;PMS5003;34710;35.798;139.446;2022-10-23T06:27:33;17;16;
48893;PMS5003;34710;35.798;139.446;2022-10-23T06:30:02;15;12;
48893;PMS5003;34710;35.798;139.446;2022-10-23T06:32:33;16;15;
48893;PMS5003;34710;35.798;139.446;2022-10-23T06:35:02;18;14;
48893;PMS5003;34710;35.798;139.446;2022-10-23T06:37:32;16;15;
48893;PMS5003;34710;35.798;139.446;2022-10-23T06:40:01;13;12;
48893;PMS5003;34710;35.798;139.446;2022-10-23T06:42:31;13;13;
48893;PMS5003;34710;35.798;139.446;2022-10-23T06:45:00;15;15;
48893;PMS5003;34710;35.798;139.446;2022-10-23T06:47:30;18;16;
48893;PMS5003;34710;35.798;139.446;2022-10-23T06:49:59;16;15;
48893;PMS5003;34710;35.798;139.446;2022-10-23T06:52:29;26;19;
48893;PMS5003;34710;35.798;139.446;2022-10-23T06:54:58;18;18;
48893;PMS5003;34710;35.798;139.446;2022-10-23T06:57:28;18;15;
48893;PMS5003;34710;35.798;139.446;2022-10-23T06:59:57;21;16;
48893;PMS5003;34710;35.798;139.446;2022-10-23T07:02:26;23;18;
48893;PMS5003;34710;35.798;139.446;2022-10-23T07:04:55;24;17;
48893;PMS5003;34710;35.798;139.446;2022-10-23T07:07:25;16;14;
48893;PMS5003;34710;35.798;139.446;2022-10-23T07:09:55;20;17;
48893;PMS5003;34710;35.798;139.446;2022-10-23T07:12:24;20;18;
48893;PMS5003;34710;35.798;139.446;2022-10-23T07:14:55;21;21;
48893;PMS5003;34710;35.798;139.446;2022-10-23T07:17:23;32;19;
48893;PMS5003;34710;35.798;139.446;2022-10-23T07:19:54;20;19;
48893;PMS5003;34710;35.798;139.446;2022-10-23T07:22:24;19;19;
48893;PMS5003;34710;35.798;139.446;2022-10-23T07:24:53;19;19;
48893;PMS5003;34710;35.798;139.446;2022-10-23T07:27:22;25;20;
48893;PMS5003;34710;35.798;139.446;2022-10-23T07:29:51;26;19;
48893;PMS5003;34710;35.798;139.446;2022-10-23T07:32:21;34;25;
48893;PMS5003;34710;35.798;139.446;2022-10-23T07:34:50;23;22;
48893;PMS5003;34710;35.798;139.446;2022-10-23T07:37:19;24;23;
48893;PMS5003;34710;35.798;139.446;2022-10-23T07:39:48;25;24;
48893;PMS5003;34710;35.798;139.446;2022-10-23T07:42:17;25;22;
48893;PMS5003;34710;35.798;139.446;2022-10-23T07:44:47;23;22;
48893;PMS5003;34710;35.798;139.446;2022-10-23T07:47:16;23;22;
48893;PMS5003;34710;35.798;139.446;2022-10-23T07:49:46;22;21;
48893;PMS5003;34710;35.798;139.446;2022-10-23T07:52:16;26;25;
48893;PMS5003;34710;35.798;139.446;2022-10-23T07:54:46;34;28;
48893;PMS5003;34710;35.798;139.446;2022-10-23T07:57:18;37;23;
48893;PMS5003;34710;35.798;139.446;2022-10-23T07:59:48;35;25;
48893;PMS5003;34710;35.798;139.446;2022-10-23T08:02:17;30;27;
48893;PMS5003;34710;35.798;139.446;2022-10-23T08:04:47;27;26;
48893;PMS5003;34710;35.798;139.446;2022-10-23T08:07:17;37;29;
48893;PMS5003;34710;35.798;139.446;2022-10-23T08:09:45;32;30;
48893;PMS5003;34710;35.798;139.446;2022-10-23T08:12:14;36;24;
48893;PMS5003;34710;35.798;139.446;2022-10-23T08:14:43;30;25;
48893;PMS5003;34710;35.798;139.446;2022-10-23T08:17:12;32;26;
48893;PMS5003;34710;35.798;139.446;2022-10-23T08:19:42;29;29;
48893;PMS5003;34710;35.798;139.446;2022-10-23T08:22:11;41;27;
48893;PMS5003;34710;35.798;139.446;2022-10-23T08:24:40;32;30;
48893;PMS5003;34710;35.798;139.446;2022-10-23T08:27:09;48;31;
48893;PMS5003;34710;35.798;139.446;2022-10-23T08:29:38;41;31;
48893;PMS5003;34710;35.798;139.446;2022-10-23T08:32:06;33;29;
48893;PMS5003;34710;35.798;139.446;2022-10-23T08:34:36;40;30;
48893;PMS5003;34710;35.798;139.446;2022-10-23T08:37:05;39;34;
48893;PMS5003;34710;35.798;139.446;2022-10-23T08:39:35;41;29;
48893;PMS5003;34710;35.798;139.446;2022-10-23T08:42:04;37;35;
48893;PMS5003;34710;35.798;139.446;2022-10-23T08:44:48;36;33;
48893;PMS5003;34710;35.798;139.446;2022-10-23T08:47:24;34;34;
48893;PMS5003;34710;35.798;139.446;2022-10-23T08:49:59;37;33;
48893;PMS5003;34710;35.798;139.446;2022-10-23T08:52:36;45;35;
48893;PMS5003;34710;35.798;139.446;2022-10-23T08:55:15;43;36;
48893;PMS5003;34710;35.798;139.446;2022-10-23T08:57:50;36;29;
48893;PMS5003;34710;35.798;139.446;2022-10-23T09:00:25;30;27;
48893;PMS5003;34710;35.798;139.446;2022-10-23T09:02:59;32;27;
48893;PMS5003;34710;35.798;139.446;2022-10-23T09:05:32;29;28;
48893;PMS5003;34710;35.798;139.446;2022-10-23T09:08:14;27;24;
48893;PMS5003;34710;35.798;139.446;2022-10-23T09:10:59;29;24;
48893;PMS5003;34710;35.798;139.446;2022-10-23T09:13:35;26;25;
48893;PMS5003;34710;35.798;139.446;2022-10-23T09:16:20;26;25;
48893;PMS5003;34710;35.798;139.446;2022-10-23T09:19:04;29;27;
48893;PMS5003;34710;35.798;139.446;2022-10-23T09:21:43;28;27;
48893;PMS5003;34710;35.798;139.446;2022-10-23T09:24:14;39;29;
48893;PMS5003;34710;35.798;139.446;2022-10-23T09:26:46;33;31;
48893;PMS5003;34710;35.798;139.446;2022-10-23T09:29:19;30;26;
48893;PMS5003;34710;35.798;139.446;2022-10-23T09:31:52;31;26;
48893;PMS5003;34710;35.798;139.446;2022-10-23T09:34:23;34;25;
48893;PMS5003;34710;35.798;139.446;2022-10-23T09:36:55;36;23;
48893;PMS5003;34710;35.798;139.446;2022-10-23T09:39:27;34;31;
48893;PMS5003;34710;35.798;139.446;2022-10-23T09:41:58;31;30;
48893;PMS5003;34710;35.798;139.446;2022-10-23T09:44:47;33;29;
48893;PMS5003;34710;35.798;139.446;2022-10-23T09:47:19;32;27;
48893;PMS5003;34710;35.798;139.446;2022-10-23T09:49:50;35;31;
48893;PMS5003;34710;35.798;139.446;2022-10-23T09:52:23;39;29;
48893;PMS5003;34710;35.798;139.446;2022-10-23T09:54:57;32;27;
48893;PMS5003;34710;35.798;139.446;2022-10-23T09:57:28;30;27;
48893;PMS5003;34710;35.798;139.446;2022-10-23T10:00:03;46;31;
48893;PMS5003;34710;35.798;139.446;2022-10-23T10:02:42;34;30;
48893;PMS5003;34710;35.798;139.446;2022-10-23T10:05:23;44;32;
48893;PMS5003;34710;35.798;139.446;2022-10-23T10:07:57;38;34;
48893;PMS5003;34710;35.798;139.446;2022-10-23T10:10:32;42;34;
48893;PMS5003;34710;35.798;139.446;2022-10-23T10:13:07;32;32;
48893;PMS5003;34710;35.798;139.446;2022-10-23T10:15:55;39;29;
48893;PMS5003;34710;35.798;139.446;2022-10-23T10:18:31;29;29;
48893;PMS5003;34710;35.798;139.446;2022-10-23T10:21:09;33;30;
48893;PMS5003;34710;35.798;139.446;2022-10-23T10:23:44;32;31;
48893;PMS5003;34710;35.798;139.446;2022-10-23T10:26:24;39;30;
48893;PMS5003;34710;35.798;139.446;2022-10-23T10:29:05;39;28;
48893;PMS5003;34710;35.798;139.446;2022-10-23T10:31:47;44;31;
48893;PMS5003;34710;35.798;139.446;2022-10-23T10:34:27;35;31;
48893;PMS5003;34710;35.798;139.446;2022-10-23T10:37:04;32;29;
48893;PMS5003;34710;35.798;139.446;2022-10-23T10:39:46;31;30;
48893;PMS5003;34710;35.798;139.446;2022-10-23T10:42:28;40;33;
48893;PMS5003;34710;35.798;139.446;2022-10-23T10:45:17;40;30;
48893;PMS5003;34710;35.798;139.446;2022-10-23T10:47:56;34;31;
48893;PMS5003;34710;35.798;139.446;2022-10-23T10:50:39;33;30;
48893;PMS5003;34710;35.798;139.446;2022-10-23T10:53:17;34;30;
48893;PMS5003;34710;35.798;139.446;2022-10-23T10:55:54;41;31;
48893;PMS5003;34710;35.798;139.446;2022-10-23T10:58:27;33;31;
48893;PMS5003;34710;35.798;139.446;2022-10-23T11:01:07;50;36;
48893;PMS5003;34710;35.798;139.446;2022-10-23T11:03:45;40;33;
48893;PMS5003;34710;35.798;139.446;2022-10-23T11:06:19;50;35;
48893;PMS5003;34710;35.798;139.446;2022-10-23T11:08:53;47;33;
48893;PMS5003;34710;35.798;139.446;2022-10-23T11:11:25;36;31;
48893;PMS5003;34710;35.798;139.446;2022-10-23T11:13:59;40;35;
48893;PMS5003;34710;35.798;139.446;2022-10-23T11:16:30;39;34;
48893;PMS5003;34710;35.798;139.446;2022-10-23T11:19:04;39;38;
48893;PMS5003;34710;35.798;139.446;2022-10-23T11:21:41;58;39;
48893;PMS5003;34710;35.798;139.446;2022-10-23T11:24:28;39;37;
48893;PMS5003;34710;35.798;139.446;2022-10-23T11:27:20;41;32;
48893;PMS5003;34710;35.798;139.446;2022-10-23T11:30:11;44;34;
48893;PMS5003;34710;35.798;139.446;2022-10-23T11:32:54;36;33;
48893;PMS5003;34710;35.798;139.446;2022-10-23T11:35:44;45;34;
48893;PMS5003;34710;35.798;139.446;2022-10-23T11:38:23;46;35;
48893;PMS5003;34710;35.798;139.446;2022-10-23T11:40:56;55;36;
48893;PMS5003;34710;35.798;139.446;2022-10-23T11:43:29;48;35;
48893;PMS5003;34710;35.798;139.446;2022-10-23T11:46:10;48;34;
48893;PMS5003;34710;35.798;139.446;2022-10-23T11:48:41;37;35;
48893;PMS5003;34710;35.798;139.446;2022-10-23T11:51:25;46;35;
48893;PMS5003;34710;35.798;139.446;2022-10-23T11:54:28;40;32;
48893;PMS5003;34710;35.798;139.446;2022-10-23T11:57:09;44;32;
48893;PMS5003;34710;35.798;139.446;2022-10-23T11:59:49;45;33;
48893;PMS5003;34710;35.798;139.446;2022-10-23T12:02:25;41;31;
48893;PMS5003;34710;35.798;139.446;2022-10-23T12:04:59;32;31;
48893;PMS5003;34710;35.798;139.446;2022-10-23T12:07:34;40;34;
48893;PMS5003;34710;35.798;139.446;2022-10-23T12:10:16;40;35;
48893;PMS5003;34710;35.798;139.446;2022-10-23T12:12:54;35;32;
48893;PMS5003;34710;35.798;139.446;2022-10-23T12:15:25;35;31;
48893;PMS5003;34710;35.798;139.446;2022-10-23T12:18:06;45;33;
48893;PMS5003;34710;35.798;139.446;2022-10-23T12:20:44;50;34;
48893;PMS5003;34710;35.798;139.446;2022-10-23T12:23:22;34;33;
48893;PMS5003;34710;35.798;139.446;2022-10-23T12:26:10;50;32;
48893;PMS5003;34710;35.798;139.446;2022-10-23T12:28:49;37;32;
48893;PMS5003;34710;35.798;139.446;2022-10-23T12:31:26;44;30;
48893;PMS5003;34710;35.798;139.446;2022-10-23T12:34:07;46;35;
48893;PMS5003;34710;35.798;139.446;2022-10-23T12:36:48;42;35;
48893;PMS5003;34710;35.798;139.446;2022-10-23T12:39:28;45;34;
48893;PMS5003;34710;35.798;139.446;2022-10-23T12:41:59;35;32;
48893;PMS5003;34710;35.798;139.446;2022-10-23T12:44:28;32;31;
48893;PMS5003;34710;35.798;139.446;2022-10-23T12:46:58;31;29;
48893;PMS5003;34710;35.798;139.446;2022-10-23T12:49:29;33;29;
48893;PMS5003;34710;35.798;139.446;2022-10-23T12:52:00;28;24;
48893;PMS5003;34710;35.798;139.446;2022-10-23T12:54:31;23;21;
48893;PMS5003;34710;35.798;139.446;2022-10-23T12:57:12;24;21;
48893;PMS5003;34710;35.798;139.446;2022-10-23T12:59:47;21;19;
48893;PMS5003;34710;35.798;139.446;2022-10-23T13:02:21;19;19;
48893;PMS5003;34710;35.798;139.446;2022-10-23T13:04:53;17;17;
48893;PMS5003;34710;35.798;139.446;2022-10-23T13:07:25;16;16;
48893;PMS5003;34710;35.798;139.446;2022-10-23T13:09:56;21;15;
48893;PMS5003;34710;35.798;139.446;2022-10-23T13:12:27;11;10;
48893;PMS5003;34710;35.798;139.446;2022-10-23T13:14:59;15;12;
48893;PMS5003;34710;35.798;139.446;2022-10-23T13:17:40;12;12;
48893;PMS5003;34710;35.798;139.446;2022-10-23T13:20:19;26;16;
48893;PMS5003;34710;35.798;139.446;2022-10-23T13:22:51;13;11;
48893;PMS5003;34710;35.798;139.446;2022-10-23T13:25:25;10;10;
48893;PMS5003;34710;35.798;139.446;2022-10-23T13:28:12;11;9;
48893;PMS5003;34710;35.798;139.446;2022-10-23T13:31:02;9;7;
48893;PMS5003;34710;35.798;139.446;2022-10-23T13:33:49;7;7;
48893;PMS5003;34710;35.798;139.446;2022-10-23T13:36:33;13;11;
48893;PMS5003;34710;35.798;139.446;2022-10-23T13:39:11;21;11;
48893;PMS5003;34710;35.798;139.446;2022-10-23T13:41:41;11;8;
48893;PMS5003;34710;35.798;139.446;2022-10-23T13:44:13;15;13;
48893;PMS5003;34710;35.798;139.446;2022-10-23T13:46:44;14;11;
48893;PMS5003;34710;35.798;139.446;2022-10-23T13:49:14;15;14;
48893;PMS5003;34710;35.798;139.446;2022-10-23T13:51:43;20;17;
48893;PMS5003;34710;35.798;139.446;2022-10-23T13:54:17;21;17;
48893;PMS5003;34710;35.798;139.446;2022-10-23T13:56:48;14;14;
48893;PMS5003;34710;35.798;139.446;2022-10-23T13:59:18;15;13;
48893;PMS5003;34710;35.798;139.446;2022-10-23T14:01:48;11;11;
48893;PMS5003;34710;35.798;139.446;2022-10-23T14:04:18;11;11;
48893;PMS5003;34710;35.798;139.446;2022-10-23T14:06:47;13;12;
48893;PMS5003;34710;35.798;139.446;2022-10-23T14:09:17;9;8;
48893;PMS5003;34710;35.798;139.446;2022-10-23T14:11:46;12;10;
48893;PMS5003;34710;35.798;139.446;2022-10-23T14:14:16;10;10;
48893;PMS5003;34710;35.798;139.446;2022-10-23T14:16:45;11;10;
48893;PMS5003;34710;35.798;139.446;2022-10-23T14:19:15;7;7;
48893;PMS5003;34710;35.798;139.446;2022-10-23T14:21:44;10;8;
48893;PMS5003;34710;35.798;139.446;2022-10-23T14:24:13;10;9;
48893;PMS5003;34710;35.798;139.446;2022-10-23T14:26:43;7;7;
48893;PMS5003;34710;35.798;139.446;2022-10-23T14:29:12;9;7;
48893;PMS5003;34710;35.798;139.446;2022-10-23T14:31:42;10;9;
48893;PMS5003;34710;35.798;139.446;2022-10-23T14:34:11;6;6;
48893;PMS5003;34710;35.798;139.446;2022-10-23T14:36:41;6;6;
48893;PMS5003;34710;35.798;139.446;2022-10-23T14:39:10;7;7;
48893;PMS5003;34710;35.798;139.446;2022-10-23T14:41:39;7;7;
48893;PMS5003;34710;35.798;139.446;2022-10-23T14:44:09;6;5;
48893;PMS5003;34710;35.798;139.446;2022-10-23T14:46:37;6;5;
48893;PMS5003;34710;35.798;139.446;2022-10-23T14:49:07;6;6;
48893;PMS5003;34710;35.798;139.446;2022-10-23T14:51:36;6;6;
48893;PMS5003;34710;35.798;139.446;2022-10-23T14:54:06;7;6;
48893;PMS5003;34710;35.798;139.446;2022-10-23T14:56:36;10;7;
48893;PMS5003;34710;35.798;139.446;2022-10-23T14:59:06;7;5;
48893;PMS5003;34710;35.798;139.446;2022-10-23T15:01:36;8;8;
48893;PMS5003;34710;35.798;139.446;2022-10-23T15:04:07;5;5;
48893;PMS5003;34710;35.798;139.446;2022-10-23T15:06:37;6;5;
48893;PMS5003;34710;35.798;139.446;2022-10-23T15:09:06;5;5;
48893;PMS5003;34710;35.798;139.446;2022-10-23T15:11:35;4;4;
48893;PMS5003;34710;35.798;139.446;2022-10-23T15:14:05;6;5;
48893;PMS5003;34710;35.798;139.446;2022-10-23T15:16:34;5;5;
48893;PMS5003;34710;35.798;139.446;2022-10-23T15:19:04;6;6;
48893;PMS5003;34710;35.798;139.446;2022-10-23T15:21:33;5;5;
48893;PMS5003;34710;35.798;139.446;2022-10-23T15:24:04;6;4;
48893;PMS5003;34710;35.798;139.446;2022-10-23T15:26:33;4;4;
48893;PMS5003;34710;35.798;139.446;2022-10-23T15:29:02;7;4;
48893;PMS5003;34710;35.798;139.446;2022-10-23T15:31:43;4;4;
48893;PMS5003;34710;35.798;139.446;2022-10-23T15:34:15;6;5;
48893;PMS5003;34710;35.798;139.446;2022-10-23T15:36:46;6;5;
48893;PMS5003;34710;35.798;139.446;2022-10-23T15:39:17;4;4;
48893;PMS5003;34710;35.798;139.446;2022-10-23T15:41:49;6;6;
48893;PMS5003;34710;35.798;139.446;2022-10-23T15:44:20;4;3;
48893;PMS5003;34710;35.798;139.446;2022-10-23T15:46:51;5;5;
48893;PMS5003;34710;35.798;139.446;2022-10-23T15:49:21;5;4;
48893;PMS5003;34710;35.798;139.446;2022-10-23T15:51:50;5;5;
48893;PMS5003;34710;35.798;139.446;2022-10-23T15:54:20;4;4;
48893;PMS5003;34710;35.798;139.446;2022-10-23T15:56:50;6;5;
48893;PMS5003;34710;35.798;139.446;2022-10-23T15:59:21;4;4;
48893;PMS5003;34710;35.798;139.446;2022-10-23T16:01:51;7;4;
48893;PMS5003;34710;35.798;139.446;2022-10-23T16:04:20;5;5;
48893;PMS5003;34710;35.798;139.446;2022-10-23T16:06:49;7;7;
48893;PMS5003;34710;35.798;139.446;2022-10-23T16:09:19;5;5;
48893;PMS5003;34710;35.798;139.446;2022-10-23T16:11:48;6;5;
48893;PMS5003;34710;35.798;139.446;2022-10-23T16:14:18;8;7;
48893;PMS5003;34710;35.798;139.446;2022-10-23T16:16:47;8;6;
48893;PMS5003;34710;35.798;139.446;2022-10-23T16:19:17;7;6;
48893;PMS5003;34710;35.798;139.446;2022-10-23T16:21:46;5;5;
48893;PMS5003;34710;35.798;139.446;2022-10-23T16:24:15;5;5;
48893;PMS5003;34710;35.798;139.446;2022-10-23T16:26:44;5;4;
48893;PMS5003;34710;35.798;139.446;2022-10-23T16:29:14;6;5;